createdAt,value
2022-12-04T00:02:17.596Z,17.27
2022-12-04T00:04:44.629Z,15.57
2022-12-04T00:07:11.848Z,15.43
2022-12-04T00:09:39.104Z,12.82
2022-12-04T00:12:09.027Z,15.32
2022-12-04T00:14:54.470Z,16.92
2022-12-04T00:17:23.453Z,15.88
2022-12-04T00:19:50.612Z,17.60
2022-12-04T00:22:17.799Z,18.42
2022-12-04T00:24:44.966Z,16.45
2022-12-04T00:27:12.131Z,17.88
2022-12-04T00:29:38.883Z,14.73
2022-12-04T00:32:06.264Z,17.43
2022-12-04T00:34:33.095Z,16.33
2022-12-04T00:36:59.965Z,16.63
2022-12-04T00:39:27.158Z,18.13
2022-12-04T00:41:54.338Z,17.17
2022-12-04T00:44:21.499Z,16.00
2022-12-04T00:46:48.763Z,17.40
2022-12-04T00:49:15.940Z,16.02
2022-12-04T00:51:43.183Z,16.75
2022-12-04T00:54:10.367Z,13.40
2022-12-04T00:56:37.611Z,19.23
2022-12-04T00:59:04.840Z,17.02
2022-12-04T01:01:32.153Z,17.50
2022-12-04T01:03:59.455Z,16.55
2022-12-04T01:06:29.332Z,16.23
2022-12-04T01:08:57.179Z,15.83
2022-12-04T01:11:26.123Z,17.77
2022-12-04T01:13:53.476Z,15.60
2022-12-04T01:16:26.042Z,17.88
2022-12-04T01:18:53.366Z,19.00
2022-12-04T01:21:20.526Z,17.93
2022-12-04T01:23:48.120Z,18.88
2022-12-04T01:26:15.369Z,16.08
2022-12-04T01:28:42.821Z,16.58
2022-12-04T01:31:13.305Z,17.33
2022-12-04T01:33:41.583Z,16.30
2022-12-04T01:36:11.868Z,16.98
2022-12-04T01:38:39.525Z,19.20
2022-12-04T01:41:07.120Z,18.15
2022-12-04T01:43:36.277Z,17.80
2022-12-04T01:46:03.947Z,18.30
2022-12-04T01:48:46.500Z,16.50
2022-12-04T01:51:26.445Z,17.00
2022-12-04T01:53:57.402Z,16.20
2022-12-04T01:56:29.401Z,18.95
2022-12-04T01:58:58.764Z,18.90
2022-12-04T02:01:29.178Z,18.20
2022-12-04T02:03:56.480Z,16.52
2022-12-04T02:06:23.662Z,15.90
2022-12-04T02:08:51.028Z,18.73
2022-12-04T02:11:18.169Z,16.93
2022-12-04T02:13:58.527Z,16.55
2022-12-04T02:16:40.906Z,18.40
2022-12-04T02:19:45.227Z,16.88
2022-12-04T02:22:35.567Z,17.48
2022-12-04T02:25:20.377Z,18.70
2022-12-04T02:28:15.613Z,18.98
2022-12-04T02:30:43.441Z,20.30
2022-12-04T02:33:21.866Z,17.33
2022-12-04T02:36:15.972Z,15.82
2022-12-04T02:38:49.292Z,19.20
2022-12-04T02:41:23.734Z,18.05
2022-12-04T02:43:57.728Z,15.73
2022-12-04T02:46:24.924Z,18.00
2022-12-04T02:48:56.172Z,18.20
2022-12-04T02:51:26.318Z,19.27
2022-12-04T02:54:06.039Z,18.08
2022-12-04T02:56:39.404Z,17.55
2022-12-04T02:59:12.526Z,18.25
2022-12-04T03:01:44.695Z,15.02
2022-12-04T03:04:26.935Z,17.30
2022-12-04T03:07:17.682Z,16.88
2022-12-04T03:09:52.293Z,16.88
2022-12-04T03:12:34.383Z,15.60
2022-12-04T03:15:09.169Z,18.63
2022-12-04T03:18:09.128Z,17.83
2022-12-04T03:20:38.576Z,17.90
2022-12-04T03:23:12.833Z,14.70
2022-12-04T03:25:52.367Z,17.85
2022-12-04T03:28:31.505Z,16.00
2022-12-04T03:31:06.678Z,16.83
2022-12-04T03:33:42.420Z,17.70
2022-12-04T03:36:21.178Z,15.60
2022-12-04T03:39:15.986Z,18.55
2022-12-04T03:42:13.588Z,18.40
2022-12-04T03:44:48.939Z,17.10
2022-12-04T03:47:36.724Z,13.57
2022-12-04T03:50:14.475Z,15.82
2022-12-04T03:53:02.079Z,16.27
2022-12-04T03:55:56.773Z,16.42
2022-12-04T03:58:29.044Z,17.87
2022-12-04T04:00:58.221Z,15.77
2022-12-04T04:03:33.164Z,14.07
2022-12-04T04:06:15.822Z,16.38
2022-12-04T04:08:46.743Z,17.45
2022-12-04T04:11:26.236Z,17.20
2022-12-04T04:14:22.913Z,17.77
2022-12-04T04:17:15.925Z,18.15
2022-12-04T04:20:03.915Z,18.55
2022-12-04T04:22:55.763Z,18.38
2022-12-04T04:25:24.900Z,16.87
2022-12-04T04:27:53.632Z,17.60
2022-12-04T04:30:21.070Z,16.05
2022-12-04T04:32:53.907Z,20.15
2022-12-04T04:36:02.760Z,17.83
2022-12-04T04:38:42.642Z,19.43
2022-12-04T04:41:09.847Z,18.17
2022-12-04T04:43:55.948Z,20.02
2022-12-04T04:46:33.264Z,17.60
2022-12-04T04:49:03.980Z,17.30
2022-12-04T04:51:33.559Z,16.10
2022-12-04T04:54:05.986Z,17.40
2022-12-04T04:56:33.264Z,18.15
2022-12-04T04:59:00.466Z,18.77
2022-12-04T05:01:28.561Z,18.27
2022-12-04T05:03:55.776Z,16.27
2022-12-04T05:06:23.023Z,17.27
2022-12-04T05:08:50.246Z,16.13
2022-12-04T05:11:17.856Z,18.75
2022-12-04T05:13:45.179Z,20.38
2022-12-04T05:16:14.351Z,20.27
2022-12-04T05:18:43.125Z,17.70
2022-12-04T05:21:16.382Z,16.90
2022-12-04T05:23:43.639Z,16.25
2022-12-04T05:26:10.836Z,18.13
2022-12-04T05:28:39.563Z,17.60
2022-12-04T05:31:06.849Z,18.08
2022-12-04T05:33:34.042Z,18.73
2022-12-04T05:36:03.274Z,18.00
2022-12-04T05:38:30.774Z,18.73
2022-12-04T05:41:02.443Z,19.57
2022-12-04T05:43:29.909Z,16.02
2022-12-04T05:46:07.536Z,15.60
2022-12-04T05:48:35.668Z,17.88
2022-12-04T05:51:07.570Z,18.23
2022-12-04T05:53:35.038Z,18.10
2022-12-04T05:56:03.099Z,17.65
2022-12-04T05:58:30.647Z,18.80
2022-12-04T06:00:57.950Z,19.15
2022-12-04T06:03:25.268Z,16.80
2022-12-04T06:05:52.551Z,18.60
2022-12-04T06:08:19.809Z,17.35
2022-12-04T06:10:47.068Z,18.05
2022-12-04T06:13:14.285Z,18.38
2022-12-04T06:15:41.400Z,16.17
2022-12-04T06:18:08.639Z,18.33
2022-12-04T06:20:36.011Z,16.90
2022-12-04T06:23:03.428Z,18.67
2022-12-04T06:25:30.644Z,17.58
2022-12-04T06:27:57.835Z,15.18
2022-12-04T06:30:24.640Z,18.83
2022-12-04T06:32:51.885Z,18.10
2022-12-04T06:35:19.119Z,19.00
2022-12-04T06:37:46.363Z,16.25
2022-12-04T06:40:13.660Z,17.90
2022-12-04T06:42:40.856Z,15.23
2022-12-04T06:45:08.304Z,17.08
2022-12-04T06:47:36.233Z,16.63
2022-12-04T06:50:04.520Z,17.80
2022-12-04T06:52:36.055Z,18.67
2022-12-04T06:55:03.278Z,17.40
2022-12-04T06:57:30.449Z,18.02
2022-12-04T06:59:57.982Z,17.20
2022-12-04T07:02:25.487Z,17.00
2022-12-04T07:04:56.266Z,18.58
2022-12-04T07:07:23.828Z,19.47
2022-12-04T07:09:51.068Z,17.83
2022-12-04T07:12:18.325Z,18.92
2022-12-04T07:14:45.113Z,17.63
2022-12-04T07:17:12.433Z,18.85
2022-12-04T07:19:39.683Z,15.97
2022-12-04T07:22:08.901Z,17.33
2022-12-04T07:24:37.472Z,19.15
2022-12-04T07:27:04.831Z,18.45
2022-12-04T07:29:32.009Z,17.63
2022-12-04T07:31:59.272Z,16.70
2022-12-04T07:34:26.524Z,15.73
2022-12-04T07:36:53.727Z,17.05
2022-12-04T07:39:20.947Z,17.38
2022-12-04T07:41:48.212Z,17.88
2022-12-04T07:44:15.399Z,16.57
2022-12-04T07:46:42.698Z,17.05
2022-12-04T07:49:12.789Z,16.52
2022-12-04T07:51:40.086Z,17.80
2022-12-04T07:54:08.767Z,17.63
2022-12-04T07:56:35.914Z,19.40
2022-12-04T07:59:03.245Z,16.45
2022-12-04T08:01:30.817Z,17.50
2022-12-04T08:03:59.735Z,17.55
2022-12-04T08:06:28.244Z,17.77
2022-12-04T08:08:55.416Z,17.30
2022-12-04T08:11:24.067Z,17.35
2022-12-04T08:14:02.016Z,16.88
2022-12-04T08:16:31.042Z,17.17
2022-12-04T08:18:58.633Z,19.48
2022-12-04T08:21:28.084Z,20.87
2022-12-04T08:23:56.705Z,21.00
2022-12-04T08:26:25.941Z,21.10
2022-12-04T08:28:54.414Z,15.40
2022-12-04T08:31:24.404Z,18.83
2022-12-04T08:33:53.419Z,17.67
2022-12-04T08:36:22.386Z,16.42
2022-12-04T08:38:50.922Z,18.55
2022-12-04T08:41:19.873Z,17.67
2022-12-04T08:43:47.107Z,17.85
2022-12-04T08:46:16.240Z,16.67
2022-12-04T08:48:43.836Z,19.17
2022-12-04T08:51:19.035Z,18.48
2022-12-04T08:53:46.677Z,18.77
2022-12-04T08:56:14.216Z,15.68
2022-12-04T08:58:41.644Z,17.00
2022-12-04T09:01:12.957Z,16.73
2022-12-04T09:03:40.602Z,16.13
2022-12-04T09:06:09.631Z,19.20
2022-12-04T09:08:37.514Z,17.42
2022-12-04T09:11:10.102Z,17.03
2022-12-04T09:13:37.514Z,14.18
2022-12-04T09:16:06.960Z,16.20
2022-12-04T09:18:35.503Z,17.55
2022-12-04T09:21:05.366Z,16.73
2022-12-04T09:23:32.616Z,18.57
2022-12-04T09:25:59.788Z,13.68
2022-12-04T09:28:27.154Z,16.90
2022-12-04T09:31:05.465Z,18.40
2022-12-04T09:33:33.194Z,17.92
2022-12-04T09:36:00.779Z,17.70
2022-12-04T09:38:28.884Z,17.85
2022-12-04T09:41:29.490Z,16.92
2022-12-04T09:44:10.316Z,17.83
2022-12-04T09:46:58.952Z,17.70
2022-12-04T09:49:26.288Z,15.67
2022-12-04T09:51:57.495Z,16.67
2022-12-04T09:54:30.628Z,15.95
2022-12-04T09:57:10.581Z,15.82
2022-12-04T09:59:38.259Z,15.52
2022-12-04T10:02:26.386Z,15.67
2022-12-04T10:04:53.626Z,13.25
2022-12-04T10:07:25.830Z,19.33
2022-12-04T10:10:05.605Z,17.40
2022-12-04T10:12:32.802Z,13.10
2022-12-04T10:15:24.726Z,14.53
2022-12-04T10:18:02.716Z,16.50
2022-12-04T10:21:06.616Z,17.77
2022-12-04T10:23:33.832Z,14.40
2022-12-04T10:26:03.264Z,14.25
2022-12-04T10:28:30.453Z,14.87
2022-12-04T10:31:01.625Z,15.00
2022-12-04T10:33:45.767Z,13.90
2022-12-04T10:36:17.489Z,13.43
2022-12-04T10:38:56.766Z,14.15
2022-12-04T10:41:41.247Z,14.90
2022-12-04T10:44:15.381Z,13.40
2022-12-04T10:46:45.875Z,10.73
2022-12-04T10:49:19.241Z,15.00
2022-12-04T10:51:47.359Z,14.68
2022-12-04T10:54:40.362Z,12.50
2022-12-04T10:57:10.078Z,12.27
2022-12-04T10:59:56.077Z,14.05
2022-12-04T11:02:28.959Z,11.30
2022-12-04T11:05:05.298Z,12.38
2022-12-04T11:07:43.154Z,13.53
2022-12-04T11:10:34.209Z,12.80
2022-12-04T11:13:04.694Z,11.68
2022-12-04T11:15:31.894Z,11.80
2022-12-04T11:18:16.109Z,11.80
2022-12-04T11:20:53.460Z,10.93
2022-12-04T11:23:20.911Z,12.25
2022-12-04T11:25:50.261Z,11.05
2022-12-04T11:28:40.454Z,11.85
2022-12-04T11:31:11.153Z,11.15
2022-12-04T11:33:44.754Z,9.57
2022-12-04T11:36:49.428Z,10.60
2022-12-04T11:39:21.830Z,10.48
2022-12-04T11:42:00.927Z,8.57
2022-12-04T11:44:31.355Z,9.73
2022-12-04T11:47:01.894Z,10.43
2022-12-04T11:49:30.716Z,10.73
2022-12-04T11:52:30.044Z,10.77
2022-12-04T11:55:02.565Z,8.95
2022-12-04T11:57:50.354Z,11.85
2022-12-04T12:00:20.414Z,9.97
2022-12-04T12:03:10.692Z,10.02
2022-12-04T12:05:38.042Z,11.00
2022-12-04T12:08:05.264Z,8.95
2022-12-04T12:11:14.341Z,7.85
2022-12-04T12:14:14.322Z,9.70
2022-12-04T12:17:07.956Z,8.80
2022-12-04T12:20:17.444Z,10.45
2022-12-04T12:22:49.973Z,11.57
2022-12-04T12:25:21.549Z,11.18
2022-12-04T12:28:13.273Z,9.40
2022-12-04T12:31:06.424Z,7.13
2022-12-04T12:33:56.884Z,10.40
2022-12-04T12:36:26.527Z,9.32
2022-12-04T12:39:11.020Z,9.23
2022-12-04T12:41:43.918Z,10.83
2022-12-04T12:44:23.184Z,12.02
2022-12-04T12:47:28.663Z,10.65
2022-12-04T12:49:55.952Z,8.50
2022-12-04T12:52:43.437Z,11.32
2022-12-04T12:55:20.011Z,13.40
2022-12-04T12:57:58.749Z,9.32
2022-12-04T13:00:26.288Z,10.15
2022-12-04T13:03:01.447Z,9.27
2022-12-04T13:05:43.271Z,11.10
2022-12-04T13:08:34.006Z,11.03
2022-12-04T13:11:25.606Z,10.15
2022-12-04T13:13:57.020Z,8.20
2022-12-04T13:16:24.272Z,9.80
2022-12-04T13:19:18.561Z,9.68
2022-12-04T13:22:03.673Z,8.83
2022-12-04T13:24:39.377Z,11.07
2022-12-04T13:27:21.333Z,13.15
2022-12-04T13:30:18.590Z,10.63
2022-12-04T13:33:10.161Z,10.00
2022-12-04T13:36:11.600Z,8.60
2022-12-04T13:38:57.853Z,9.82
2022-12-04T13:41:27.104Z,5.68
2022-12-04T13:43:54.671Z,7.78
2022-12-04T13:46:30.470Z,9.05
2022-12-04T13:49:22.255Z,8.63
2022-12-04T13:51:49.775Z,9.90
2022-12-04T13:54:16.999Z,10.77
2022-12-04T13:56:55.840Z,11.23
2022-12-04T13:59:30.494Z,9.73
2022-12-04T14:02:08.008Z,9.10
2022-12-04T14:04:46.086Z,9.90
2022-12-04T14:07:31.929Z,9.32
2022-12-04T14:10:04.587Z,10.35
2022-12-04T14:12:38.800Z,9.25
2022-12-04T14:15:23.827Z,11.43
2022-12-04T14:18:01.736Z,10.52
2022-12-04T14:20:32.059Z,10.77
2022-12-04T14:23:27.399Z,9.20
2022-12-04T14:25:57.705Z,9.60
2022-12-04T14:28:34.967Z,7.73
2022-12-04T14:31:05.898Z,8.55
2022-12-04T14:33:45.488Z,9.82
2022-12-04T14:36:20.441Z,9.23
2022-12-04T14:38:50.729Z,8.48
2022-12-04T14:41:25.937Z,10.07
2022-12-04T14:43:53.458Z,11.65
2022-12-04T14:46:21.955Z,9.93
2022-12-04T14:49:27.105Z,9.50
2022-12-04T14:52:11.178Z,10.85
2022-12-04T14:55:21.919Z,11.40
2022-12-04T14:57:49.157Z,10.50
2022-12-04T15:00:24.756Z,10.57
2022-12-04T15:02:58.483Z,8.82
2022-12-04T15:05:25.748Z,12.38
2022-12-04T15:07:56.776Z,11.80
2022-12-04T15:10:50.881Z,8.35
2022-12-04T15:13:32.463Z,12.32
2022-12-04T15:16:15.529Z,8.80
2022-12-04T15:18:59.726Z,13.48
2022-12-04T15:21:40.804Z,11.93
2022-12-04T15:24:09.485Z,13.75
2022-12-04T15:26:37.592Z,13.48
2022-12-04T15:29:07.178Z,14.02
2022-12-04T15:31:48.354Z,13.15
2022-12-04T15:34:18.430Z,12.57
2022-12-04T15:36:52.016Z,9.82
2022-12-04T15:39:27.832Z,13.60
2022-12-04T15:42:23.159Z,12.40
2022-12-04T15:45:10.243Z,13.52
2022-12-04T15:47:41.076Z,15.40
2022-12-04T15:50:16.687Z,14.32
2022-12-04T15:53:14.386Z,11.85
2022-12-04T15:55:53.816Z,15.05
2022-12-04T15:58:41.441Z,14.05
2022-12-04T16:01:11.080Z,13.53
2022-12-04T16:03:50.406Z,15.32
2022-12-04T16:06:27.450Z,15.55
2022-12-04T16:09:14.541Z,15.88
2022-12-04T16:11:42.829Z,16.60
2022-12-04T16:14:10.043Z,15.13
2022-12-04T16:16:43.581Z,15.48
2022-12-04T16:19:36.319Z,18.13
2022-12-04T16:22:10.382Z,19.02
2022-12-04T16:24:37.907Z,15.38
2022-12-04T16:27:12.481Z,17.60
2022-12-04T16:29:42.880Z,16.83
2022-12-04T16:32:16.464Z,12.70
2022-12-04T16:34:43.618Z,15.38
2022-12-04T16:37:19.907Z,17.55
2022-12-04T16:39:47.480Z,18.63
2022-12-04T16:42:23.551Z,16.95
2022-12-04T16:44:50.962Z,15.70
2022-12-04T16:47:18.268Z,15.82
2022-12-04T16:49:47.906Z,14.70
2022-12-04T16:52:15.164Z,16.13
2022-12-04T16:54:42.616Z,13.20
2022-12-04T16:57:10.314Z,16.75
2022-12-04T16:59:37.754Z,16.23
2022-12-04T17:02:12.961Z,15.18
2022-12-04T17:04:40.372Z,16.37
2022-12-04T17:07:07.602Z,16.38
2022-12-04T17:09:34.764Z,15.73
2022-12-04T17:12:01.959Z,13.73
2022-12-04T17:14:29.223Z,16.60
2022-12-04T17:16:58.652Z,15.03
2022-12-04T17:19:25.862Z,15.55
2022-12-04T17:21:53.101Z,16.52
2022-12-04T17:24:20.376Z,17.25
2022-12-04T17:26:47.591Z,16.30
2022-12-04T17:29:14.534Z,16.87
2022-12-04T17:31:41.791Z,16.38
2022-12-04T17:34:09.066Z,15.55
2022-12-04T17:36:36.311Z,16.15
2022-12-04T17:39:03.684Z,13.77
2022-12-04T17:41:31.020Z,15.67
2022-12-04T17:43:59.931Z,15.32
2022-12-04T17:46:26.781Z,15.52
2022-12-04T17:48:56.640Z,15.95
2022-12-04T17:51:24.963Z,16.17
2022-12-04T17:53:52.264Z,17.37
2022-12-04T17:56:22.170Z,16.45
2022-12-04T17:58:49.811Z,18.15
2022-12-04T18:01:22.475Z,15.95
2022-12-04T18:03:58.185Z,14.30
2022-12-04T18:06:27.430Z,14.00
2022-12-04T18:08:54.994Z,16.90
2022-12-04T18:11:24.528Z,17.02
2022-12-04T18:14:08.565Z,16.38
2022-12-04T18:16:42.570Z,14.10
2022-12-04T18:19:10.913Z,15.40
2022-12-04T18:21:38.161Z,15.48
2022-12-04T18:24:05.920Z,13.98
2022-12-04T18:26:35.630Z,15.48
2022-12-04T18:29:02.922Z,13.88
2022-12-04T18:31:30.158Z,12.97
2022-12-04T18:33:57.362Z,11.95
2022-12-04T18:36:28.368Z,13.90
2022-12-04T18:38:57.930Z,13.00
2022-12-04T18:41:25.452Z,13.98
2022-12-04T18:43:52.723Z,24.87
2022-12-04T18:46:20.522Z,13.02
2022-12-04T18:48:48.508Z,14.23
2022-12-04T18:51:24.139Z,17.77
2022-12-04T18:53:53.294Z,13.95
2022-12-04T18:56:21.528Z,15.17
2022-12-04T18:58:49.035Z,14.23
2022-12-04T19:01:18.953Z,15.07
2022-12-04T19:03:47.444Z,13.82
2022-12-04T19:06:14.787Z,15.77
2022-12-04T19:08:43.408Z,14.10
2022-12-04T19:11:15.441Z,15.05
2022-12-04T19:13:42.884Z,14.73
2022-12-04T19:16:14.622Z,14.30
2022-12-04T19:18:45.024Z,14.95
2022-12-04T19:21:12.459Z,14.67
2022-12-04T19:23:39.666Z,14.65
2022-12-04T19:26:06.887Z,15.02
2022-12-04T19:28:33.740Z,15.65
2022-12-04T19:31:00.968Z,15.02
2022-12-04T19:33:28.798Z,16.13
2022-12-04T19:36:01.258Z,13.85
2022-12-04T19:38:28.763Z,13.73
2022-12-04T19:41:10.132Z,16.02
2022-12-04T19:43:42.220Z,15.98
2022-12-04T19:46:11.544Z,16.37
2022-12-04T19:48:38.958Z,16.73
2022-12-04T19:51:08.448Z,17.58
2022-12-04T19:53:40.672Z,16.85
2022-12-04T19:56:14.013Z,18.10
2022-12-04T19:58:41.459Z,16.53
2022-12-04T20:01:12.213Z,16.80
2022-12-04T20:03:39.459Z,16.60
2022-12-04T20:06:14.301Z,16.95
2022-12-04T20:08:42.374Z,17.90
2022-12-04T20:11:12.259Z,17.13
2022-12-04T20:13:40.203Z,17.13
2022-12-04T20:16:11.520Z,16.80
2022-12-04T20:18:39.552Z,17.75
2022-12-04T20:21:11.106Z,16.83
2022-12-04T20:23:42.498Z,17.80
2022-12-04T20:26:12.406Z,17.77
2022-12-04T20:28:39.734Z,17.60
2022-12-04T20:31:18.166Z,18.98
2022-12-04T20:33:47.156Z,19.05
2022-12-04T20:36:15.636Z,15.20
2022-12-04T20:38:43.268Z,17.73
2022-12-04T20:41:13.629Z,16.63
2022-12-04T20:43:40.440Z,18.63
2022-12-04T20:46:35.106Z,17.00
2022-12-04T20:49:04.361Z,17.17
2022-12-04T20:51:33.881Z,17.05
2022-12-04T20:54:01.552Z,17.90
2022-12-04T20:56:31.574Z,16.50
2022-12-04T20:59:00.153Z,18.63
2022-12-04T21:01:28.115Z,17.37
2022-12-04T21:03:55.541Z,18.25
2022-12-04T21:06:34.544Z,18.08
2022-12-04T21:09:22.091Z,17.25
2022-12-04T21:11:52.841Z,18.15
2022-12-04T21:14:41.039Z,16.63
2022-12-04T21:17:10.924Z,17.77
2022-12-04T21:19:38.549Z,15.38
2022-12-04T21:22:05.807Z,17.88
2022-12-04T21:24:38.196Z,16.70
2022-12-04T21:27:07.731Z,19.20
2022-12-04T21:29:35.136Z,18.88
2022-12-04T21:32:02.506Z,18.63
2022-12-04T21:34:29.753Z,19.40
2022-12-04T21:36:57.080Z,16.45
2022-12-04T21:39:25.248Z,17.40
2022-12-04T21:42:11.135Z,18.42
2022-12-04T21:44:38.812Z,18.45
2022-12-04T21:47:06.084Z,15.82
2022-12-04T21:49:33.296Z,14.30
2022-12-04T21:52:00.493Z,16.63
2022-12-04T21:54:28.650Z,16.95
2022-12-04T21:56:56.584Z,18.08
2022-12-04T21:59:24.933Z,18.60
2022-12-04T22:01:52.545Z,15.05
2022-12-04T22:04:19.916Z,18.20
2022-12-04T22:06:47.159Z,17.98
2022-12-04T22:09:14.466Z,17.92
2022-12-04T22:11:42.094Z,17.88
2022-12-04T22:14:10.168Z,17.50
2022-12-04T22:16:41.846Z,17.20
2022-12-04T22:19:10.483Z,15.55
2022-12-04T22:21:38.107Z,17.70
2022-12-04T22:24:05.357Z,18.40
2022-12-04T22:26:32.764Z,19.45
2022-12-04T22:29:00.052Z,18.27
2022-12-04T22:31:28.735Z,19.02
2022-12-04T22:33:57.905Z,18.23
2022-12-04T22:36:29.544Z,18.38
2022-12-04T22:39:12.139Z,17.63
2022-12-04T22:41:39.610Z,16.97
2022-12-04T22:44:07.008Z,17.70
2022-12-04T22:46:34.345Z,17.70
2022-12-04T22:49:04.081Z,18.00
2022-12-04T22:51:31.316Z,17.75
2022-12-04T22:53:58.869Z,17.13
2022-12-04T22:56:28.358Z,18.00
2022-12-04T22:58:55.669Z,17.65
2022-12-04T23:01:25.343Z,18.38
2022-12-04T23:03:53.397Z,17.80
2022-12-04T23:06:22.297Z,17.70
2022-12-04T23:08:49.712Z,17.60
2022-12-04T23:11:19.181Z,17.02
2022-12-04T23:13:53.712Z,18.00
2022-12-04T23:16:22.233Z,17.83
2022-12-04T23:18:49.880Z,18.63
2022-12-04T23:21:17.282Z,17.70
2022-12-04T23:23:45.984Z,18.05
2022-12-04T23:26:16.396Z,18.83
2022-12-04T23:28:43.916Z,17.63
2022-12-04T23:31:11.517Z,16.07
2022-12-04T23:33:39.450Z,14.43
2022-12-04T23:36:08.305Z,16.90
2022-12-04T23:38:36.893Z,15.93
2022-12-04T23:41:04.034Z,16.98
2022-12-04T23:43:31.595Z,17.50
2022-12-04T23:45:58.833Z,16.23
2022-12-04T23:48:26.030Z,17.17
2022-12-04T23:50:53.445Z,17.35
2022-12-04T23:53:21.387Z,16.20
2022-12-04T23:56:11.708Z,17.57
2022-12-04T23:58:39.023Z,17.50
